Alta, Illinois
Current Conditions -  °F | °C
As of 4:54 AM on Sunday 23 Nov 2014 (Local Time) from KPIA Reporting Station
Overcast Overcast  
Wind Chill: 11°   Ceiling: 5000
Heat Index: 11°   Visibility: 10mi
Dew Point:   Wind: 12mph
Humidity: 74%   Direction: 160°SSE
Pressure: 29.73"   Gusts: NA
Location:  40.7792°N, 89.6377°W
Report Text: KPIA 231054Z 16010KT 10SM BKN050 BKN065 OVC080 11/06 A2973 RMK AO2 SLP068 T01060061
Loading
Personal Weather Stations






























Interactive Weather Map New forecast layout! Learn more

10-Day Weather Forecast

Advertisements
Track Severe Weather on mobile